Time;durP1;ratioP1;P1;durP2;ratioP2;P2;SDS_P1;SDS_P2;PMS_P1;PMS_P2;Temp;Humidity;BMP_temperature;BMP_pressure;BME280_temperature;BME280_humidity;BME280_pressure;Samples;Min_cycle;Max_cycle;Signal;HPM_P1;HPM_P2
2023/05/30 05:10:21;;;;;;;54.30;11.65;;;;;;;19.57;41.95;99817.84;6185383;22;20043;-91
2023/05/30 05:13:08;;;;;;;44.95;11.38;;;;;;;19.74;43.12;99822.22;6161401;23;20364;-89
2023/05/30 05:15:36;;;;;;;49.13;11.77;;;;;;;19.28;42.78;99730.44;6100957;23;20030;-88
2023/05/30 05:25:20;;;;;;;66.47;12.05;;;;;;;19.71;43.85;99745.25;6155865;23;20059;-87
2023/05/30 05:27:47;;;;;;;45.53;11.15;;;;;;;20.06;41.27;99759.06;6133410;23;20021;-89
2023/05/30 05:39:09;;;;;;;28.25;6.85;;;;;;;20.62;37.84;99807.75;6070750;23;20045;-89
2023/05/30 06:00:41;;;;;;;22.95;6.75;;;;;;;21.53;33.43;99806.13;6186307;23;20049;-89
2023/05/30 06:03:57;;;;;;;19.83;4.90;;;;;;;21.63;29.43;99799.94;6158524;23;20028;-89
2023/05/30 06:06:23;;;;;;;40.08;7.72;;;;;;;21.76;34.72;99770.69;6116889;23;20025;-89
2023/05/30 06:08:49;;;;;;;18.83;6.57;;;;;;;22.05;33.02;99796.91;6159939;23;20489;-91
2023/05/30 06:11:19;;;;;;;15.57;4.47;;;;;;;21.88;31.56;99752.94;6137389;23;20354;-88
2023/05/30 06:13:55;;;;;;;11.48;5.15;;;;;;;22.21;30.79;99802.28;6137111;23;20116;-86
2023/05/30 06:28:33;;;;;;;12.40;4.85;;;;;;;21.76;31.56;99792.16;6186713;23;20031;-88
2023/05/30 06:31:02;;;;;;;12.73;5.30;;;;;;;21.67;32.99;99778.50;6140325;23;20017;-87
2023/05/30 06:33:56;;;;;;;18.08;5.05;;;;;;;21.85;32.09;99784.31;6203995;23;20020;-87
2023/05/30 06:36:22;;;;;;;7.93;4.43;;;;;;;21.59;26.83;99737.88;6156339;23;20013;-88
2023/05/30 06:39:56;;;;;;;21.05;4.93;;;;;;;22.05;31.06;99780.22;6197528;23;20031;-90
2023/05/30 06:42:41;;;;;;;17.40;5.28;;;;;;;21.80;29.94;99754.84;6163208;23;20013;-89
2023/05/30 06:45:38;;;;;;;32.05;5.35;;;;;;;22.06;29.71;99753.16;6094414;23;20058;-88
2023/05/30 06:48:05;;;;;;;35.08;6.35;;;;;;;22.34;32.61;99774.97;6067389;23;20018;-90
2023/05/30 06:50:33;;;;;;;13.18;5.78;;;;;;;22.62;31.80;99780.06;6133408;23;20116;-87
2023/05/30 06:53:02;;;;;;;16.88;4.13;;;;;;;22.20;27.97;99728.28;6156753;23;20031;-87
2023/05/30 06:55:31;;;;;;;7.10;4.40;;;;;;;22.09;28.13;99719.00;6133108;23;20021;-91
2023/05/30 06:58:05;;;;;;;16.17;5.35;;;;;;;22.62;27.90;99776.47;6168394;23;20029;-87
2023/05/30 07:00:52;;;;;;;22.27;4.60;;;;;;;22.69;25.98;99771.78;6151177;23;20123;-86
2023/05/30 07:09:33;;;;;;;7.15;4.38;;;;;;;22.14;26.71;99704.72;6183729;23;20033;-86
2023/05/30 07:12:03;;;;;;;19.23;5.25;;;;;;;22.59;29.73;99741.81;6103994;23;20128;-87
2023/05/30 07:14:30;;;;;;;8.93;4.38;;;;;;;22.83;26.92;99765.53;6127015;23;20471;-88
2023/05/30 07:17:28;;;;;;;12.80;5.70;;;;;;;22.94;28.86;99762.84;6208027;23;20269;-87
2023/05/30 07:19:54;;;;;;;30.40;6.57;;;;;;;22.94;28.85;99740.53;6107885;23;20367;-88
2023/05/30 07:22:24;;;;;;;13.93;5.43;;;;;;;22.68;27.60;99692.16;6132432;23;20024;-86
2023/05/30 07:25:03;;;;;;;19.33;4.90;;;;;;;22.42;29.27;99664.44;6163026;23;20017;-89
2023/05/30 07:27:54;;;;;;;12.63;5.10;;;;;;;22.78;27.32;99753.91;6191028;23;20024;-87
2023/05/30 07:30:21;;;;;;;15.07;5.18;;;;;;;22.86;27.63;99750.03;6138391;23;20021;-87
2023/05/30 07:32:47;;;;;;;21.35;5.22;;;;;;;22.78;29.75;99745.56;6113751;23;20016;-87
2023/05/30 07:35:15;;;;;;;16.73;5.57;;;;;;;22.47;27.91;99730.94;6113455;23;20055;-88
2023/05/30 07:37:41;;;;;;;13.35;5.57;;;;;;;22.21;26.70;99741.03;6115082;23;20024;-85
2023/05/30 07:44:59;;;;;;;13.63;6.65;;;;;;;22.51;29.80;99745.72;6164099;23;20016;-88
2023/05/30 07:51:50;;;;;;;15.68;5.68;;;;;;;22.28;27.47;99695.72;6195058;23;20159;-87
2023/05/30 08:02:47;;;;;;;34.13;5.75;;;;;;;23.42;27.75;99737.69;6103496;23;20017;-91
2023/05/30 08:13:47;;;;;;;13.40;5.55;;;;;;;22.47;27.43;99722.59;6125295;23;20056;-88
2023/05/30 08:17:21;;;;;;;23.42;5.82;;;;;;;22.60;28.16;99723.91;6100032;23;20018;-87
2023/05/30 08:34:04;;;;;;;25.08;6.53;;;;;;;22.21;26.10;99704.03;6086359;23;20502;-88
2023/05/30 08:48:48;;;;;;;22.02;7.53;;;;;;;22.46;26.46;99690.34;6182477;23;20025;-89
2023/05/30 08:56:02;;;;;;;17.38;6.03;;;;;;;21.94;28.35;99630.94;6163222;23;20032;-90
2023/05/30 08:58:56;;;;;;;24.17;7.10;;;;;;;22.38;28.19;99695.03;6107257;23;20018;-89
2023/05/30 09:06:11;;;;;;;30.10;7.47;;;;;;;22.09;27.74;99606.81;6124554;23;20072;-89
2023/05/30 09:08:41;;;;;;;;;;;;;;;22.72;28.54;99683.81;6086924;23;20029;-87
2023/05/30 09:11:07;;;;;;;21.90;5.47;;;;;;;22.80;27.56;99681.88;6125032;23;19916;-84
2023/05/30 09:14:01;;;;;;;15.05;5.47;;;;;;;22.89;29.91;99674.78;6061822;23;20110;-86
2023/05/30 09:16:32;;;;;;;14.27;5.35;;;;;;;22.56;27.67;99603.25;6158797;23;20025;-88
2023/05/30 09:23:20;;;;;;;25.55;6.40;;;;;;;22.74;26.37;99632.03;6092763;23;20061;-85
2023/05/30 09:29:16;;;;;;;19.63;5.93;;;;;;;23.31;26.33;99662.31;6096431;23;20022;-89
2023/05/30 10:30:58;;;;;;;11.00;5.13;;;;;;;24.73;26.09;99612.75;6203807;23;20007;-89
2023/05/30 10:33:49;;;;;;;21.85;5.88;;;;;;;24.74;25.63;99608.78;6168082;23;20071;-87
2023/05/30 10:56:05;;;;;;;21.55;5.68;;;;;;;24.73;26.72;99571.63;6204137;22;20092;-88
2023/05/30 13:05:26;;;;;;;13.27;7.10;;;;;;;26.16;22.70;99470.09;6253023;23;20227;-85
2023/05/30 13:07:52;;;;;;;17.35;5.88;;;;;;;25.83;23.52;99462.38;6249309;22;20099;-86
2023/05/30 13:30:45;;;;;;;18.95;5.68;;;;;;;24.23;24.57;99401.22;6128056;23;20018;-90
2023/05/30 13:33:11;;;;;;;15.80;5.63;;;;;;;24.26;24.49;99433.94;6111402;23;20368;-89
2023/05/30 13:35:37;;;;;;;22.27;5.78;;;;;;;24.13;25.31;99419.59;6130489;23;20021;-91
2023/05/30 14:01:07;;;;;;;15.82;6.20;;;;;;;24.30;27.86;99380.84;6162817;23;20100;-87
2023/05/30 14:12:07;;;;;;;13.50;5.15;;;;;;;24.96;27.22;99455.69;6163219;23;20019;-89
2023/05/30 14:23:38;;;;;;;27.70;6.53;;;;;;;25.94;24.11;99449.88;6188271;23;20012;-89
2023/05/30 14:29:16;;;;;;;15.13;5.03;;;;;;;25.86;24.00;99417.56;6047441;23;20019;-90
2023/05/30 14:31:43;;;;;;;16.98;5.63;;;;;;;26.15;25.66;99445.28;6042072;23;20105;-89
2023/05/30 14:34:09;;;;;;;14.38;5.20;;;;;;;25.86;24.33;99442.78;6068538;23;20033;-90
2023/05/30 14:36:45;;;;;;;23.02;5.88;;;;;;;25.82;23.68;99433.56;6066418;23;20082;-89
2023/05/30 14:39:14;;;;;;;15.18;5.65;;;;;;;25.76;24.65;99436.03;6046064;23;20153;-87
2023/05/30 14:41:41;;;;;;;29.73;6.60;;;;;;;25.76;25.89;99430.41;6070684;23;20138;-88
2023/05/30 14:44:07;;;;;;;;;;;;;;;25.47;24.75;99434.66;6023580;23;20021;-88
2023/05/30 14:51:30;;;;;;;9.00;5.40;;;;;;;24.54;25.21;99374.44;6075174;23;20027;-91
2023/05/30 14:54:46;;;;;;;14.73;6.97;;;;;;;24.26;25.85;99357.72;6048962;23;20493;-92
2023/05/30 15:01:35;;;;;;;22.25;6.45;;;;;;;24.28;27.60;99402.84;6190027;23;20021;-89
2023/05/30 15:04:38;;;;;;;15.75;6.95;;;;;;;24.38;26.23;99418.75;6165802;23;20017;-88
2023/05/30 15:07:20;;;;;;;15.30;5.38;;;;;;;23.90;27.09;99367.00;6016080;23;20020;-90
2023/05/30 15:09:49;;;;;;;39.25;6.35;;;;;;;23.86;27.00;99382.16;6158873;23;20021;-90
2023/05/30 15:12:21;;;;;;;50.00;6.82;;;;;;;23.94;27.25;99391.31;6162402;23;20022;-90
2023/05/30 15:14:52;;;;;;;36.13;5.70;;;;;;;23.82;27.83;99392.56;6129913;23;20025;-90
2023/05/30 15:17:18;;;;;;;21.63;7.13;;;;;;;23.81;27.81;99388.97;6084067;23;20028;-91
2023/05/30 15:19:47;;;;;;;47.78;8.75;;;;;;;24.04;27.96;99418.44;6106884;23;20025;-89
2023/05/30 15:26:19;;;;;;;19.98;6.45;;;;;;;23.39;28.76;99340.31;6128697;23;20025;-90
2023/05/30 15:29:15;;;;;;;25.90;6.47;;;;;;;23.94;27.37;99416.44;5992214;23;20355;-90
2023/05/30 15:36:31;;;;;;;17.23;6.80;;;;;;;23.76;30.67;99408.91;6190880;23;20023;-90
2023/05/30 15:40:03;;;;;;;17.35;6.43;;;;;;;23.67;28.89;99408.47;6117016;23;20020;-91
2023/05/30 15:47:25;;;;;;;67.07;8.95;;;;;;;23.44;30.47;99408.84;6190242;23;20013;-91
2023/05/30 15:50:12;;;;;;;25.65;7.57;;;;;;;23.33;32.15;99408.06;6114220;23;20021;-89
2023/05/30 15:52:38;;;;;;;40.55;7.82;;;;;;;22.93;31.16;99357.81;6137599;23;20100;-89
2023/05/30 15:55:06;;;;;;;40.88;9.30;;;;;;;22.91;31.36;99370.50;6188631;23;20017;-87
2023/05/30 15:57:35;;;;;;;30.17;8.77;;;;;;;22.98;30.27;99404.03;6161125;23;20022;-87
2023/05/30 16:00:01;;;;;;;46.22;9.35;;;;;;;22.86;31.56;99404.34;6114306;23;20070;-88
2023/05/30 16:02:30;;;;;;;42.50;8.32;;;;;;;22.74;31.07;99395.16;6122954;23;20017;-90
2023/05/30 16:16:14;;;;;;;28.83;7.78;;;;;;;21.87;31.69;99353.34;6163764;23;20112;-94
2023/05/30 16:24:56;;;;;;;82.95;10.57;;;;;;;21.96;33.01;99403.09;6159824;23;20021;-92
2023/05/30 16:27:25;;;;;;;62.72;11.02;;;;;;;21.39;34.14;99324.78;6117718;23;20022;-88
2023/05/30 16:32:47;;;;;;;48.10;9.32;;;;;;;21.61;33.43;99384.94;6177157;23;20047;-90
2023/05/30 16:35:23;;;;;;;39.95;9.63;;;;;;;21.60;34.11;99388.13;6176593;23;20025;-92
2023/05/30 16:37:53;;;;;;;40.40;10.27;;;;;;;21.55;34.28;99390.06;6089898;23;20021;-87
2023/05/30 16:40:20;;;;;;;64.72;11.52;;;;;;;21.55;33.97;99392.84;6075671;23;20372;-86
2023/05/30 16:42:48;;;;;;;63.72;11.55;;;;;;;21.53;34.15;99394.44;6124265;23;20120;-85
2023/05/30 16:45:14;;;;;;;38.92;11.02;;;;;;;21.56;34.53;99402.81;6125163;23;20022;-84
2023/05/30 16:47:40;;;;;;;;;;;;;;;21.47;34.76;99402.31;6077015;23;20482;-90
2023/05/30 16:50:07;;;;;;;60.17;15.40;;;;;;;21.33;35.38;99388.28;6077646;23;19917;-87
2023/05/30 16:52:33;;;;;;;57.15;11.68;;;;;;;21.18;33.69;99379.00;6124303;23;20096;-85
2023/05/30 16:55:03;;;;;;;66.00;10.43;;;;;;;21.30;33.32;99380.69;6123168;23;20045;-85
2023/05/30 16:57:30;;;;;;;48.03;10.23;;;;;;;21.37;34.37;99397.47;6099771;23;20022;-87
2023/05/30 16:59:56;;;;;;;46.72;10.52;;;;;;;21.23;33.69;99375.88;6118462;23;20022;-87
2023/05/30 17:02:22;;;;;;;41.07;9.77;;;;;;;21.22;34.45;99379.81;6122793;23;20029;-88
2023/05/30 17:04:49;;;;;;;33.42;8.48;;;;;;;21.16;34.11;99380.56;6133587;23;20013;-85
2023/05/30 17:07:16;;;;;;;37.67;9.45;;;;;;;21.16;34.76;99392.50;6135048;23;20515;-87
2023/05/30 17:09:43;;;;;;;34.63;10.38;;;;;;;21.07;34.28;99383.66;6124121;23;20104;-86
2023/05/30 17:12:10;;;;;;;;;;;;;;;21.07;35.14;99390.00;6115929;23;20017;-87
2023/05/30 17:14:40;;;;;;;44.50;10.90;;;;;;;20.88;35.67;99374.31;6146087;23;20615;-88
2023/05/30 17:17:06;;;;;;;53.65;10.50;;;;;;;20.82;36.81;99380.59;6131696;23;20515;-89
2023/05/30 17:19:33;;;;;;;52.88;11.73;;;;;;;20.72;37.38;99384.88;6155573;23;20100;-87
2023/05/30 17:21:59;;;;;;;66.70;11.50;;;;;;;20.50;37.27;99360.78;6154321;23;20086;-86
2023/05/30 17:24:25;;;;;;;60.65;12.15;;;;;;;20.48;37.56;99358.38;6153396;23;20021;-86
2023/05/30 17:26:51;;;;;;;39.13;10.37;;;;;;;20.47;37.27;99362.34;6149684;23;20623;-89
2023/05/30 17:29:19;;;;;;;60.67;10.50;;;;;;;20.45;39.18;99373.00;6125425;23;20109;-87
2023/05/30 17:31:46;;;;;;;55.88;20.42;;;;;;;20.26;38.18;99348.19;6153421;23;20578;-88
2023/05/30 17:34:14;;;;;;;56.95;20.83;;;;;;;20.03;38.81;99331.63;6152779;23;20333;-88
2023/05/30 17:36:42;;;;;;;63.33;22.25;;;;;;;19.93;38.44;99333.91;6150264;23;20044;-86
2023/05/30 17:39:10;;;;;;;51.65;19.40;;;;;;;19.97;38.75;99350.59;6151018;23;20018;-86
2023/05/30 17:41:52;;;;;;;54.67;17.00;;;;;;;19.84;39.22;99347.25;6150050;23;20029;-87
2023/05/30 17:44:19;;;;;;;46.47;13.07;;;;;;;19.65;39.54;99327.94;6157202;23;20242;-90
2023/05/30 17:46:45;;;;;;;49.00;12.70;;;;;;;;;;6138149;23;20049;-88
2023/05/30 17:49:12;;;;;;;45.67;14.53;;;;;;;19.47;40.10;99331.22;6134753;23;20029;-91
2023/05/30 17:51:38;;;;;;;77.00;22.83;;;;;;;19.35;39.60;99325.06;6130866;23;20067;-90
2023/05/30 17:54:06;;;;;;;;;;;;;;;19.55;39.47;99370.94;6105361;23;20032;-87
2023/05/30 17:56:34;;;;;;;48.85;15.65;;;;;;;19.10;40.01;99299.69;6159795;23;20432;-88
2023/05/30 18:01:49;;;;;;;61.58;13.07;;;;;;;18.92;40.08;99291.09;6253999;23;20048;-90
2023/05/30 18:04:16;;;;;;;46.08;11.75;;;;;;;19.28;39.64;99347.13;6248923;23;20020;-89
2023/05/30 18:06:45;;;;;;;60.72;10.13;;;;;;;19.01;39.44;99320.16;6248655;23;20047;-92
2023/05/30 18:09:13;;;;;;;40.58;10.70;;;;;;;19.06;39.57;99335.66;6201832;23;20097;-89
2023/05/30 18:11:41;;;;;;;54.55;11.88;;;;;;;18.88;40.18;99307.66;6225740;23;20027;-89
2023/05/30 18:14:07;;;;;;;54.83;11.98;;;;;;;18.95;41.12;99334.69;6231563;23;20036;-90
2023/05/30 18:16:35;;;;;;;52.40;12.65;;;;;;;18.99;41.42;99352.16;6196934;23;20024;-89
2023/05/30 18:19:01;;;;;;;74.18;13.95;;;;;;;18.57;42.23;99310.59;6244978;23;20016;-89
2023/05/30 18:21:30;;;;;;;58.03;14.02;;;;;;;18.68;41.91;99328.22;6245194;22;20024;-89
2023/05/30 18:23:57;;;;;;;78.43;14.60;;;;;;;18.49;41.68;99312.44;6247302;23;20020;-91
2023/05/30 18:26:27;;;;;;;95.57;15.02;;;;;;;18.36;42.89;99297.16;6221655;23;20039;-92
2023/05/30 18:28:53;;;;;;;51.38;13.13;;;;;;;18.56;41.16;99340.25;6242823;23;20087;-90
2023/05/30 18:31:20;;;;;;;45.00;13.65;;;;;;;18.27;41.53;99294.59;6243779;23;20020;-90
2023/05/30 18:33:46;;;;;;;62.78;15.10;;;;;;;18.45;42.64;99326.22;6223607;23;20076;-90
2023/05/30 18:36:14;;;;;;;61.78;16.80;;;;;;;18.18;42.67;99281.00;6218264;23;20015;-87
2023/05/30 18:38:42;;;;;;;72.55;18.75;;;;;;;18.09;42.25;99274.88;6238896;22;20161;-86
2023/05/30 18:41:13;;;;;;;62.97;19.98;;;;;;;18.12;41.61;99279.69;6235259;23;20095;-86
2023/05/30 18:43:41;;;;;;;49.78;17.13;;;;;;;18.29;42.96;99314.41;6239502;23;20954;-88
2023/05/30 18:46:11;;;;;;;58.38;18.17;;;;;;;18.17;42.99;99297.97;6247545;22;20020;-87
2023/05/30 18:48:38;;;;;;;45.30;14.38;;;;;;;17.87;42.64;99253.47;6251169;22;20016;-87
2023/05/30 19:08:50;;;;;;;168.68;67.93;;;;;;;17.84;46.32;99304.78;6178729;22;20064;-87
2023/05/30 19:11:18;;;;;;;492.05;182.80;;;;;;;17.67;44.74;99272.78;6183866;23;20469;-88
2023/05/30 19:13:44;;;;;;;201.23;66.22;;;;;;;17.75;44.55;99295.88;6183446;23;20031;-87
2023/05/30 19:16:10;;;;;;;118.93;36.43;;;;;;;17.74;45.47;99291.50;6158130;23;20028;-87
2023/05/30 19:18:39;;;;;;;105.90;36.45;;;;;;;17.69;46.77;99284.28;6185789;23;20028;-88
2023/05/30 19:21:08;;;;;;;89.20;22.40;;;;;;;17.66;46.12;99289.75;6158097;23;20518;-87
2023/05/30 19:23:34;;;;;;;64.03;19.40;;;;;;;17.58;45.12;99280.47;6184524;23;20779;-90
2023/05/30 19:26:02;;;;;;;67.22;20.42;;;;;;;17.35;45.60;99245.25;6193949;23;20024;-87
2023/05/30 19:28:30;;;;;;;69.93;19.98;;;;;;;17.67;45.65;99294.91;6189316;23;20493;-87
2023/05/30 19:30:56;;;;;;;83.57;20.23;;;;;;;17.46;45.69;99277.84;6160444;23;20025;-89
2023/05/30 19:33:22;;;;;;;69.60;19.67;;;;;;;17.51;45.66;99292.16;6154431;23;20018;-89
2023/05/30 19:35:48;;;;;;;60.07;18.13;;;;;;;17.50;45.77;99293.34;6104570;23;20022;-91
2023/05/30 19:38:15;;;;;;;73.20;17.75;;;;;;;17.32;45.05;99270.03;6104385;23;20259;-88
2023/05/30 19:40:44;;;;;;;100.55;19.55;;;;;;;17.35;47.07;99286.69;6131356;23;20040;-90
2023/05/30 19:43:13;;;;;;;71.10;18.00;;;;;;;17.34;45.79;99287.03;6131043;23;20025;-92
2023/05/30 19:45:39;;;;;;;123.95;18.88;;;;;;;17.38;45.18;99297.03;6134131;23;20021;-90
2023/05/30 19:48:07;;;;;;;80.63;18.10;;;;;;;17.23;49.77;99275.75;6134008;23;20017;-92
2023/05/30 19:50:33;;;;;;;73.63;17.03;;;;;;;17.22;47.07;99282.44;6106758;23;20141;-90
2023/05/30 19:52:59;;;;;;;72.57;17.07;;;;;;;17.20;48.45;99283.94;6154263;23;20260;-89
2023/05/30 19:55:25;;;;;;;56.97;15.95;;;;;;;17.09;47.22;99275.41;6155263;23;20582;-90
2023/05/30 19:57:51;;;;;;;54.67;15.05;;;;;;;17.06;45.90;99265.88;6130317;23;20017;-90
2023/05/30 20:00:20;;;;;;;55.75;15.40;;;;;;;17.18;46.59;99286.25;6158203;23;20479;-93
2023/05/30 20:02:48;;;;;;;63.10;14.90;;;;;;;17.13;46.50;99284.56;6131310;23;20485;-89
2023/05/30 20:05:15;;;;;;;63.58;14.68;;;;;;;17.03;45.52;99266.56;6106433;23;20023;-94
2023/05/30 20:08:04;;;;;;;40.20;14.27;;;;;;;17.26;45.65;99296.31;6106211;23;20486;-93
2023/05/30 20:10:31;;;;;;;59.80;15.27;;;;;;;17.12;45.69;99283.78;6085318;23;20018;-91
2023/05/30 20:12:57;;;;;;;46.42;14.63;;;;;;;17.02;45.97;99276.03;6101137;23;20078;-87
2023/05/30 20:15:23;;;;;;;60.97;15.33;;;;;;;17.10;45.97;99277.78;6054827;23;20045;-89
2023/05/30 20:17:52;;;;;;;57.23;16.07;;;;;;;17.06;46.26;99274.16;6099775;23;20033;-89
2023/05/30 20:20:18;;;;;;;49.58;13.55;;;;;;;17.07;45.30;99280.47;6098796;23;20258;-87
2023/05/30 20:22:46;;;;;;;59.42;15.52;;;;;;;17.00;45.86;99266.50;6050374;23;20017;-86
2023/05/30 20:25:14;;;;;;;70.90;15.88;;;;;;;17.03;46.54;99277.63;6122713;23;20487;-89
2023/05/30 20:27:45;;;;;;;61.88;15.40;;;;;;;16.97;46.20;99265.25;6101891;23;20109;-88
2023/05/30 20:30:12;;;;;;;57.35;16.40;;;;;;;17.01;46.52;99263.34;6102095;23;20017;-92
2023/05/30 20:32:38;;;;;;;54.63;16.13;;;;;;;16.93;46.63;99253.31;6104360;23;20018;-94
2023/05/30 20:35:05;;;;;;;60.17;17.40;;;;;;;16.92;46.54;99254.47;6058085;23;20018;-88
2023/05/30 20:37:31;;;;;;;75.82;16.50;;;;;;;16.90;47.25;99251.25;6084770;23;20018;-92
2023/05/30 20:39:58;;;;;;;54.25;16.10;;;;;;;16.89;47.06;99247.69;6058644;23;20423;-92
2023/05/30 20:42:24;;;;;;;55.78;16.13;;;;;;;16.83;47.11;99237.28;6129408;23;20353;-90
2023/05/30 20:44:50;;;;;;;50.33;17.80;;;;;;;17.02;47.76;99267.75;6055888;23;20085;-90
2023/05/30 20:47:16;;;;;;;54.33;16.75;;;;;;;16.90;47.19;99260.34;6053098;23;20257;-88
2023/05/30 20:49:44;;;;;;;51.72;17.25;;;;;;;16.97;47.39;99268.00;6101236;23;20025;-89
2023/05/30 20:52:11;;;;;;;60.20;19.92;;;;;;;16.67;47.19;99226.22;6054483;23;20050;-90
2023/05/30 20:54:37;;;;;;;61.80;17.93;;;;;;;16.79;47.34;99242.72;6151841;23;20027;-89
2023/05/30 20:57:22;;;;;;;49.80;17.97;;;;;;;16.85;47.99;99259.78;6166126;23;20020;-95
2023/05/30 20:59:50;;;;;;;59.95;19.30;;;;;;;16.77;47.23;99247.00;6143287;23;20085;-90
2023/05/30 21:02:16;;;;;;;55.97;18.80;;;;;;;16.70;47.35;99247.56;6192377;23;20079;-90
2023/05/30 21:04:43;;;;;;;73.37;19.50;;;;;;;16.80;47.58;99252.59;6192473;23;20032;-91
2023/05/30 21:07:10;;;;;;;65.47;19.80;;;;;;;16.71;47.94;99232.59;6193630;23;20021;-92
2023/05/30 21:09:36;;;;;;;68.15;22.00;;;;;;;16.66;48.29;99230.13;6141928;23;20031;-89
2023/05/30 21:12:02;;;;;;;69.93;21.53;;;;;;;16.49;48.21;99203.69;6191461;23;20021;-88
2023/05/30 21:14:28;;;;;;;59.30;20.13;;;;;;;16.66;48.50;99222.66;6167215;23;20013;-89
2023/05/30 21:16:54;;;;;;;77.38;20.63;;;;;;;16.75;48.67;99232.72;6140460;23;20255;-89
2023/05/30 21:19:21;;;;;;;56.95;20.73;;;;;;;16.67;47.97;99224.25;6160756;23;20017;-89
2023/05/30 21:21:47;;;;;;;64.82;21.13;;;;;;;16.45;48.13;99189.78;6161490;23;20044;-94
2023/05/30 21:24:13;;;;;;;78.65;22.63;;;;;;;16.71;48.33;99218.81;6186912;23;20024;-93
2023/05/30 21:26:40;;;;;;;82.10;22.47;;;;;;;16.76;48.34;99217.78;6155459;23;20021;-90
2023/05/30 21:29:08;;;;;;;71.22;22.13;;;;;;;16.63;48.38;99203.25;6181664;23;20458;-88
2023/05/30 21:31:38;;;;;;;71.55;22.33;;;;;;;16.68;48.83;99214.00;6179958;23;20028;-89
2023/05/30 21:34:05;;;;;;;69.03;23.30;;;;;;;16.74;49.02;99231.09;6184302;23;20023;-88
2023/05/30 21:36:31;;;;;;;78.95;21.70;;;;;;;16.43;49.45;99181.06;6186335;23;20661;-89
2023/05/30 21:38:57;;;;;;;72.75;21.48;;;;;;;16.62;49.67;99213.47;6184137;23;20088;-89
2023/05/30 21:41:23;;;;;;;82.93;18.38;;;;;;;16.48;47.99;99226.91;6135845;23;20017;-90
2023/05/30 21:43:49;;;;;;;52.25;18.83;;;;;;;16.37;48.28;99198.25;6162271;23;20013;-89
2023/05/30 21:46:16;;;;;;;87.28;22.33;;;;;;;16.39;48.46;99201.44;6185554;23;20021;-91
2023/05/30 21:48:42;;;;;;;48.60;19.27;;;;;;;16.38;48.12;99191.56;6137609;23;20127;-90
2023/05/30 21:51:08;;;;;;;65.20;19.50;;;;;;;16.57;48.23;99210.97;6161666;23;20517;-90
2023/05/30 21:53:34;;;;;;;68.82;18.27;;;;;;;16.49;48.50;99198.16;6184845;23;20071;-89
2023/05/30 21:56:01;;;;;;;57.67;17.20;;;;;;;16.44;48.13;99201.19;6181890;23;20025;-87
2023/05/30 21:58:27;;;;;;;68.57;19.53;;;;;;;16.42;48.11;99189.69;6187235;23;20048;-92
2023/05/30 22:00:55;;;;;;;51.70;18.02;;;;;;;16.54;48.91;99210.88;6187571;23;20021;-91
2023/05/30 22:03:21;;;;;;;58.78;17.88;;;;;;;16.30;48.54;99182.31;6184735;23;20024;-88
2023/05/30 22:05:47;;;;;;;68.60;17.80;;;;;;;16.31;48.23;99186.66;6160659;23;20017;-91
2023/05/30 22:08:13;;;;;;;63.30;17.80;;;;;;;16.22;48.61;99161.19;6186958;23;20027;-94
2023/05/30 22:10:42;;;;;;;47.85;14.68;;;;;;;16.41;47.85;99186.13;6189296;23;20016;-89
2023/05/30 22:13:07;;;;;;;51.93;14.40;;;;;;;16.42;47.55;99173.13;6164029;23;20382;-90
2023/05/30 22:15:33;;;;;;;70.57;13.85;;;;;;;16.43;47.48;99167.28;6163143;23;20074;-87
2023/05/30 22:18:00;;;;;;;49.67;13.93;;;;;;;16.26;47.68;99134.53;6184813;23;20021;-88
2023/05/30 22:20:26;;;;;;;45.13;12.68;;;;;;;16.35;47.31;99157.19;6133147;23;20115;-88
2023/05/30 22:22:52;;;;;;;41.50;12.15;;;;;;;16.28;47.22;99142.44;6155255;23;20113;-89
2023/05/30 22:25:18;;;;;;;49.47;13.82;;;;;;;16.34;47.66;99155.59;6160055;23;20048;-89
2023/05/30 22:27:44;;;;;;;29.27;11.57;;;;;;;16.05;48.62;99126.47;6134991;23;20028;-90
2023/05/30 22:30:11;;;;;;;52.53;11.75;;;;;;;16.25;46.98;99165.22;6158520;23;20032;-90
2023/05/30 22:32:37;;;;;;;60.00;12.07;;;;;;;16.37;47.32;99179.72;6185864;23;20012;-91
2023/05/30 22:35:04;;;;;;;35.13;11.05;;;;;;;16.27;47.54;99163.69;6133048;23;20045;-94
2023/05/30 22:37:30;;;;;;;37.85;10.75;;;;;;;16.31;47.85;99153.56;6132712;23;20455;-93
2023/05/30 22:39:56;;;;;;;43.67;11.23;;;;;;;16.55;48.04;99184.88;6133048;23;20093;-90
2023/05/30 22:42:22;;;;;;;43.13;11.65;;;;;;;16.59;48.59;99185.78;6186988;23;20009;-93
2023/05/30 22:44:48;;;;;;;60.85;10.77;;;;;;;16.47;49.54;99166.56;6162466;23;20017;-94
2023/05/30 22:47:14;;;;;;;52.13;11.60;;;;;;;16.56;49.99;99198.34;6162047;23;20517;-96
2023/05/30 22:49:40;;;;;;;33.83;11.02;;;;;;;16.37;50.85;99176.16;6185222;23;20336;-89
2023/05/30 22:52:06;;;;;;;53.03;11.02;;;;;;;16.38;51.77;99189.59;6157969;23;20357;-94
2023/05/30 22:54:32;;;;;;;32.73;9.80;;;;;;;16.24;52.55;99188.44;6157309;23;20017;-95
2023/05/30 22:56:58;;;;;;;35.85;9.25;;;;;;;16.02;52.85;99152.00;6161026;23;20024;-94
2023/05/30 22:59:24;;;;;;;35.00;9.85;;;;;;;16.26;53.51;99192.44;6162475;23;20017;-95
2023/05/30 23:01:56;;;;;;;34.87;9.40;;;;;;;16.16;54.04;99196.53;6185442;23;20053;-89
2023/05/30 23:04:23;;;;;;;46.78;9.57;;;;;;;15.86;54.61;99153.91;6184708;23;20017;-88
2023/05/30 23:06:49;;;;;;;47.72;9.65;;;;;;;15.96;54.89;99183.75;6186282;23;20402;-89
2023/05/30 23:09:15;;;;;;;28.07;9.30;;;;;;;15.78;55.22;99158.44;6186261;23;20043;-90
2023/05/30 23:11:41;;;;;;;19.77;8.43;;;;;;;15.70;55.23;99162.97;6160029;23;20021;-89
2023/05/30 23:14:07;;;;;;;18.83;8.07;;;;;;;15.79;56.09;99184.84;6184563;23;20097;-89
2023/05/30 23:16:33;;;;;;;25.48;8.13;;;;;;;15.59;56.12;99164.56;6160518;23;20205;-93
2023/05/30 23:18:59;;;;;;;35.90;7.93;;;;;;;15.55;56.86;99196.72;6161598;23;20404;-92
2023/05/30 23:21:25;;;;;;;21.02;8.38;;;;;;;15.50;57.13;99188.72;6160391;23;20020;-88
2023/05/30 23:23:51;;;;;;;25.50;7.63;;;;;;;15.41;57.28;99185.31;6185434;23;20017;-89
2023/05/30 23:26:17;;;;;;;21.35;7.97;;;;;;;15.30;57.81;99193.25;6138245;23;20025;-94
2023/05/30 23:28:43;;;;;;;26.67;8.27;;;;;;;15.23;58.04;99179.25;6161690;23;20028;-91
2023/05/30 23:31:09;;;;;;;25.95;7.63;;;;;;;15.33;58.22;99213.78;6160697;23;20017;-91
2023/05/30 23:33:35;;;;;;;30.77;8.13;;;;;;;15.13;58.73;99186.06;6135427;23;20072;-90
2023/05/30 23:36:00;;;;;;;26.08;7.63;;;;;;;15.08;58.77;99164.25;6159107;23;20024;-89
2023/05/30 23:38:26;;;;;;;34.65;8.10;;;;;;;15.14;58.80;99171.13;6184961;23;20028;-88
2023/05/30 23:40:52;;;;;;;34.67;8.07;;;;;;;15.23;58.52;99202.09;6160101;23;20020;-92
2023/05/30 23:43:18;;;;;;;20.67;7.85;;;;;;;15.06;59.06;99163.78;6133567;23;20044;-90
2023/05/30 23:45:44;;;;;;;72.30;9.23;;;;;;;15.08;59.16;99177.22;6159446;23;20072;-91
2023/05/30 23:48:10;;;;;;;29.20;7.95;;;;;;;15.04;59.28;99166.09;6184502;23;20103;-89
2023/05/30 23:50:36;;;;;;;29.23;7.78;;;;;;;14.99;59.41;99166.31;6159424;23;20087;-88
2023/05/30 23:53:02;;;;;;;17.85;7.75;;;;;;;14.95;59.85;99166.22;6184137;23;20093;-92
2023/05/30 23:55:29;;;;;;;29.48;7.90;;;;;;;15.20;59.65;99204.75;6158637;23;20025;-87
2023/05/30 23:57:55;;;;;;;;;;;;;;;15.12;59.95;99195.44;6135212;23;20021;-88
